Time;durP1;ratioP1;P1;durP2;ratioP2;P2;SDS_P1;SDS_P2;PMS_P1;PMS_P2;Temp;Humidity;BMP_temperature;BMP_pressure;BME280_temperature;BME280_humidity;BME280_pressure;Samples;Min_cycle;Max_cycle;Signal;HPM_P1;HPM_P2
2021/06/11 00:00:54;;;;;;;4.90;4.50;;;14.60;99.90;;;;;;5031294;28;20792;-72
2021/06/11 00:03:20;;;;;;;4.47;4.07;;;14.60;99.90;;;;;;5028762;28;20268;-73
2021/06/11 00:05:45;;;;;;;4.63;4.23;;;14.50;99.90;;;;;;5030003;28;20174;-73
2021/06/11 00:08:11;;;;;;;5.60;5.20;;;14.50;99.90;;;;;;5029901;28;20471;-73
2021/06/11 00:10:38;;;;;;;4.57;4.27;;;14.40;99.90;;;;;;5030719;28;20242;-73
2021/06/11 00:13:04;;;;;;;5.80;4.13;;;14.40;99.90;;;;;;5030917;28;20623;-72
2021/06/11 00:15:31;;;;;;;5.40;4.87;;;14.40;99.90;;;;;;5029336;28;20440;-72
2021/06/11 00:17:57;;;;;;;3.87;3.67;;;14.40;99.90;;;;;;5030309;28;20542;-73
2021/06/11 00:20:22;;;;;;;5.00;4.60;;;14.30;99.90;;;;;;5031612;28;20519;-73
2021/06/11 00:22:49;;;;;;;7.27;4.43;;;14.30;99.90;;;;;;5030694;28;20854;-72
2021/06/11 00:25:19;;;;;;;4.80;4.50;;;14.20;99.90;;;;;;5030758;28;20174;-72
2021/06/11 00:27:45;;;;;;;4.77;4.37;;;14.10;99.90;;;;;;5029012;28;20487;-72
2021/06/11 00:30:11;;;;;;;4.77;4.40;;;14.10;99.90;;;;;;5030046;28;20456;-73
2021/06/11 00:32:37;;;;;;;4.60;4.30;;;14.00;99.90;;;;;;5029987;28;20177;-73
2021/06/11 00:35:05;;;;;;;6.03;3.90;;;14.00;99.90;;;;;;5029906;28;20455;-72
2021/06/11 00:37:30;;;;;;;5.00;4.57;;;13.90;99.90;;;;;;5029612;28;20767;-72
2021/06/11 00:39:56;;;;;;;4.10;3.80;;;13.90;99.90;;;;;;5030669;28;20552;-72
2021/06/11 00:42:22;;;;;;;5.90;4.60;;;13.90;99.90;;;;;;5030098;28;20608;-72
2021/06/11 00:44:47;;;;;;;4.83;4.43;;;13.70;99.90;;;;;;5030382;28;20189;-72
2021/06/11 00:47:13;;;;;;;4.23;3.93;;;13.60;99.90;;;;;;5028550;28;20573;-72
2021/06/11 00:49:39;;;;;;;4.30;3.90;;;13.70;99.90;;;;;;5030498;28;20192;-73
2021/06/11 00:52:08;;;;;;;4.50;4.20;;;13.80;99.90;;;;;;5029146;28;20236;-72
2021/06/11 00:54:34;;;;;;;4.70;4.33;;;13.90;99.90;;;;;;5030226;28;20178;-73
2021/06/11 00:57:00;;;;;;;4.50;4.10;;;13.90;99.90;;;;;;5029279;28;20497;-73
2021/06/11 00:59:27;;;;;;;4.30;4.00;;;13.90;99.90;;;;;;5029718;28;20877;-73
2021/06/11 01:01:52;;;;;;;4.33;4.07;;;13.90;99.90;;;;;;5030001;28;20736;-73
2021/06/11 01:04:18;;;;;;;3.87;3.67;;;13.90;99.90;;;;;;5030483;28;20432;-75
2021/06/11 01:06:45;;;;;;;4.50;4.20;;;13.90;99.90;;;;;;5029758;28;20209;-75
2021/06/11 01:09:12;;;;;;;4.63;4.30;;;13.90;99.90;;;;;;5030100;28;20217;-75
2021/06/11 01:11:40;;;;;;;4.87;4.47;;;13.90;99.90;;;;;;5007362;28;20485;-74
2021/06/11 01:14:07;;;;;;;4.60;4.30;;;13.80;99.90;;;;;;5031727;28;20456;-74
2021/06/11 01:16:33;;;;;;;4.20;3.97;;;13.70;99.90;;;;;;5030698;28;20436;-74
2021/06/11 01:18:59;;;;;;;4.43;4.10;;;13.70;99.90;;;;;;5030975;28;20505;-74
2021/06/11 01:21:28;;;;;;;4.97;4.57;;;13.60;99.90;;;;;;5028281;28;20182;-74
2021/06/11 01:24:13;;;;;;;5.03;4.63;;;13.70;99.90;;;;;;5029772;28;20429;-74
2021/06/11 01:26:42;;;;;;;4.67;4.17;;;13.60;99.90;;;;;;5030286;28;20877;-74
2021/06/11 01:29:13;;;;;;;4.73;4.43;;;13.60;99.90;;;;;;5031586;28;20897;-74
2021/06/11 01:31:41;;;;;;;4.57;4.20;;;13.70;99.90;;;;;;5032292;28;20437;-74
2021/06/11 01:34:15;;;;;;;4.30;4.00;;;13.70;99.90;;;;;;5035158;28;20979;-74
2021/06/11 01:36:48;;;;;;;4.40;4.10;;;13.70;99.90;;;;;;5032225;28;20416;-74
2021/06/11 01:39:17;;;;;;;4.07;3.87;;;13.70;99.90;;;;;;5035205;28;20424;-74
2021/06/11 01:41:44;;;;;;;4.90;4.53;;;13.70;99.90;;;;;;5032671;28;20535;-74
2021/06/11 01:44:11;;;;;;;4.10;3.90;;;13.70;99.90;;;;;;5023203;28;20467;-74
2021/06/11 01:46:40;;;;;;;5.00;4.60;;;13.70;99.90;;;;;;5032971;28;20428;-74
2021/06/11 01:49:06;;;;;;;4.20;3.60;;;13.70;99.90;;;;;;5023739;28;20580;-74
2021/06/11 01:51:35;;;;;;;3.90;3.60;;;13.70;99.90;;;;;;5032237;28;20433;-74
2021/06/11 01:54:02;;;;;;;4.93;4.53;;;13.60;99.90;;;;;;5033158;28;20797;-74
2021/06/11 01:56:29;;;;;;;4.10;3.80;;;13.60;99.90;;;;;;5032573;28;21015;-74
2021/06/11 01:58:55;;;;;;;5.10;4.70;;;13.60;99.90;;;;;;5032004;28;20515;-74
2021/06/11 02:01:22;;;;;;;3.70;3.40;;;13.60;99.90;;;;;;5032698;28;20452;-74
2021/06/11 02:03:50;;;;;;;3.90;3.70;;;13.60;99.90;;;;;;5033782;28;20429;-74
2021/06/11 02:06:17;;;;;;;4.30;4.00;;;13.50;99.90;;;;;;5020277;28;20440;-74
2021/06/11 02:08:48;;;;;;;4.70;4.30;;;13.50;99.90;;;;;;5032776;28;20484;-74
2021/06/11 02:11:14;;;;;;;5.27;4.80;;;13.40;99.90;;;;;;5032784;28;20433;-74
2021/06/11 02:13:43;;;;;;;4.60;4.20;;;13.40;99.90;;;;;;5033555;28;20886;-74
2021/06/11 02:16:11;;;;;;;4.40;4.00;;;13.40;99.90;;;;;;5021859;28;20805;-74
2021/06/11 02:18:36;;;;;;;4.80;4.50;;;13.40;99.90;;;;;;5032922;28;20518;-74
2021/06/11 02:21:05;;;;;;;4.27;4.00;;;13.40;99.90;;;;;;5032345;28;20923;-74
2021/06/11 02:23:31;;;;;;;4.90;4.50;;;13.40;99.90;;;;;;5033249;28;20224;-74
2021/06/11 02:25:56;;;;;;;5.20;4.80;;;13.40;99.90;;;;;;5030625;28;20812;-74
2021/06/11 02:28:22;;;;;;;4.87;4.57;;;13.40;99.90;;;;;;5032526;28;20452;-74
2021/06/11 02:30:48;;;;;;;5.47;5.00;;;13.30;99.90;;;;;;5032300;28;20193;-75
2021/06/11 02:33:15;;;;;;;6.50;5.30;;;13.30;99.90;;;;;;5032564;28;20176;-75
2021/06/11 02:35:41;;;;;;;5.10;4.70;;;13.30;99.90;;;;;;5032426;28;20174;-75
2021/06/11 02:38:07;;;;;;;5.60;5.10;;;13.30;99.90;;;;;;5030452;28;20447;-75
2021/06/11 02:40:33;;;;;;;4.53;4.00;;;13.20;99.90;;;;;;5031342;28;20908;-75
2021/06/11 02:43:09;;;;;;;5.30;4.90;;;13.10;99.90;;;;;;5032312;28;20516;-75
2021/06/11 02:45:56;;;;;;;5.47;5.00;;;13.10;99.90;;;;;;5032442;28;20203;-75
2021/06/11 02:48:29;;;;;;;6.40;5.33;;;13.10;99.90;;;;;;5032622;28;20452;-75
2021/06/11 02:51:02;;;;;;;5.57;5.17;;;13.20;99.90;;;;;;5032719;28;20424;-75
2021/06/11 02:53:29;;;;;;;4.87;4.47;;;13.10;99.90;;;;;;5033658;28;20428;-73
2021/06/11 02:55:59;;;;;;;5.10;4.70;;;13.10;99.90;;;;;;5032606;28;20825;-74
2021/06/11 02:58:32;;;;;;;5.50;5.00;;;13.10;99.90;;;;;;5034851;28;20416;-74
2021/06/11 03:01:02;;;;;;;5.60;5.10;;;13.00;99.90;;;;;;5017167;28;20941;-74
2021/06/11 03:03:30;;;;;;;6.17;5.67;;;13.00;99.90;;;;;;5024834;28;20435;-73
2021/06/11 03:05:59;;;;;;;6.20;5.70;;;12.90;99.90;;;;;;5028979;28;20448;-74
2021/06/11 03:08:29;;;;;;;6.53;5.93;;;12.90;99.90;;;;;;5033118;28;20906;-74
2021/06/11 03:11:04;;;;;;;6.30;5.60;;;12.90;99.90;;;;;;5033091;28;20425;-74
2021/06/11 03:13:31;;;;;;;5.40;5.00;;;12.90;99.90;;;;;;5032341;28;20420;-74
2021/06/11 03:15:58;;;;;;;5.80;5.30;;;12.90;99.90;;;;;;5031935;28;20778;-73
2021/06/11 03:18:44;;;;;;;8.57;6.00;;;12.90;99.90;;;;;;5033340;28;20432;-73
2021/06/11 03:21:14;;;;;;;5.97;5.40;;;12.90;99.90;;;;;;5032049;28;20420;-73
2021/06/11 03:23:46;;;;;;;5.90;5.40;;;12.90;99.90;;;;;;5030462;28;20471;-73
2021/06/11 03:26:17;;;;;;;5.63;5.13;;;12.90;99.90;;;;;;5033032;28;20459;-74
2021/06/11 03:28:49;;;;;;;7.53;6.70;;;12.90;99.90;;;;;;5031663;28;20456;-74
2021/06/11 03:31:20;;;;;;;5.83;5.33;;;12.80;99.90;;;;;;5031260;28;20520;-73
2021/06/11 03:33:49;;;;;;;6.97;6.33;;;12.80;99.90;;;;;;5033065;28;20427;-74
2021/06/11 03:36:38;;;;;;;6.97;6.27;;;12.80;99.90;;;;;;5030337;28;20932;-73
2021/06/11 03:39:06;;;;;;;6.83;6.30;;;12.70;99.90;;;;;;5032002;28;20470;-74
2021/06/11 03:41:36;;;;;;;7.00;6.40;;;12.70;99.90;;;;;;5030508;28;20417;-73
2021/06/11 03:44:09;;;;;;;5.97;5.57;;;12.80;99.90;;;;;;5030280;28;20425;-74
2021/06/11 03:46:38;;;;;;;6.47;5.87;;;12.80;99.90;;;;;;5032208;28;20440;-74
2021/06/11 03:49:04;;;;;;;6.50;5.90;;;12.90;99.90;;;;;;5030770;28;20436;-74
2021/06/11 03:51:31;;;;;;;7.50;6.77;;;12.90;99.90;;;;;;5028617;28;20421;-74
2021/06/11 03:53:58;;;;;;;6.63;6.03;;;12.90;99.90;;;;;;5031092;28;20437;-74
2021/06/11 03:56:26;;;;;;;6.70;6.10;;;12.90;99.90;;;;;;5030225;28;20460;-74
2021/06/11 03:58:53;;;;;;;7.37;6.77;;;12.90;99.90;;;;;;5029767;28;20516;-74
2021/06/11 04:01:24;;;;;;;5.90;5.40;;;12.90;99.90;;;;;;5030733;28;20990;-74
2021/06/11 04:03:51;;;;;;;7.30;6.67;;;13.00;99.90;;;;;;5030684;28;20428;-74
2021/06/11 04:06:21;;;;;;;7.00;6.40;;;13.00;99.90;;;;;;5029298;28;20432;-74
2021/06/11 04:08:51;;;;;;;7.67;6.97;;;13.00;99.90;;;;;;5029912;28;20457;-74
2021/06/11 04:11:24;;;;;;;7.77;7.00;;;13.10;99.90;;;;;;5028324;28;20424;-74
2021/06/11 04:13:57;;;;;;;7.97;7.17;;;13.10;99.90;;;;;;5032115;28;20802;-74
2021/06/11 04:16:33;;;;;;;9.77;7.63;;;13.20;99.90;;;;;;5030566;28;20437;-74
2021/06/11 04:19:02;;;;;;;8.37;7.57;;;13.20;99.90;;;;;;5031411;28;20917;-74
2021/06/11 04:21:33;;;;;;;9.20;8.30;;;13.30;99.90;;;;;;5029672;28;20424;-74
2021/06/11 04:24:04;;;;;;;11.67;8.10;;;13.40;99.90;;;;;;5031591;28;20420;-74
2021/06/11 04:26:34;;;;;;;9.27;8.43;;;13.40;99.90;;;;;;5031355;28;20433;-74
2021/06/11 04:29:01;;;;;;;9.40;8.40;;;13.50;99.90;;;;;;5031341;28;20436;-74
2021/06/11 04:31:30;;;;;;;9.70;8.20;;;13.50;99.90;;;;;;5028125;28;20774;-74
2021/06/11 04:33:58;;;;;;;9.00;7.57;;;13.60;99.90;;;;;;5017902;28;20432;-74
2021/06/11 04:36:24;;;;;;;8.90;8.10;;;13.60;99.90;;;;;;5030147;28;20440;-74
2021/06/11 04:38:59;;;;;;;9.40;8.50;;;13.70;99.90;;;;;;5030344;28;20494;-74
2021/06/11 04:41:27;;;;;;;11.30;9.00;;;13.80;99.90;;;;;;5027309;28;20522;-74
2021/06/11 04:43:53;;;;;;;10.97;9.40;;;13.90;99.90;;;;;;5028729;28;20444;-74
2021/06/11 04:46:19;;;;;;;11.20;9.30;;;13.90;99.90;;;;;;5028975;28;20507;-73
2021/06/11 04:48:45;;;;;;;10.53;9.43;;;14.00;99.90;;;;;;5024034;28;20459;-73
2021/06/11 04:51:10;;;;;;;10.70;9.57;;;14.10;99.90;;;;;;5030721;28;20432;-73
2021/06/11 04:53:36;;;;;;;11.00;9.90;;;14.20;99.90;;;;;;5028617;28;20929;-73
2021/06/11 04:56:07;;;;;;;8.87;8.00;;;14.30;99.90;;;;;;5030554;28;20181;-73
2021/06/11 04:58:33;;;;;;;10.23;9.00;;;14.40;99.90;;;;;;5029910;28;20564;-72
2021/06/11 05:00:58;;;;;;;9.80;8.90;;;14.40;99.90;;;;;;5030950;28;20441;-72
2021/06/11 05:03:24;;;;;;;8.97;7.80;;;14.50;99.90;;;;;;5027955;28;20944;-74
2021/06/11 05:05:50;;;;;;;9.43;8.57;;;14.60;99.90;;;;;;5029072;28;20192;-75
2021/06/11 05:08:15;;;;;;;9.43;8.53;;;14.60;99.90;;;;;;5029501;28;20209;-74
2021/06/11 05:10:41;;;;;;;8.50;7.60;;;14.70;99.90;;;;;;5025691;28;20182;-73
2021/06/11 05:13:07;;;;;;;8.17;7.37;;;14.80;99.90;;;;;;5021466;28;20247;-74
2021/06/11 05:15:32;;;;;;;8.40;7.60;;;14.80;99.90;;;;;;5024498;28;20641;-75
2021/06/11 05:18:09;;;;;;;9.97;9.03;;;14.90;99.90;;;;;;5029386;28;20190;-74
2021/06/11 05:20:37;;;;;;;8.77;8.03;;;14.90;99.90;;;;;;5031692;28;20257;-75
2021/06/11 05:23:03;;;;;;;8.10;7.40;;;15.00;99.90;;;;;;5029646;28;20902;-74
2021/06/11 05:25:29;;;;;;;10.23;9.13;;;15.00;99.90;;;;;;5030112;28;20431;-75
2021/06/11 05:27:54;;;;;;;9.13;8.20;;;15.10;99.90;;;;;;5029843;28;20456;-74
2021/06/11 05:30:23;;;;;;;10.00;8.97;;;15.10;99.90;;;;;;5026756;28;20273;-74
2021/06/11 05:32:49;;;;;;;11.50;9.90;;;15.20;99.90;;;;;;5028616;28;20178;-74
2021/06/11 05:35:15;;;;;;;11.27;9.87;;;15.30;99.90;;;;;;5030980;28;20508;-74
2021/06/11 05:37:41;;;;;;;11.30;9.73;;;15.40;99.90;;;;;;5029005;28;20432;-74
2021/06/11 05:40:07;;;;;;;21.53;17.43;;;15.50;99.90;;;;;;5027898;28;20509;-74
2021/06/11 05:42:33;;;;;;;30.30;19.80;;;15.70;99.90;;;;;;5028979;28;20190;-74
2021/06/11 05:44:59;;;;;;;33.60;25.47;;;16.10;99.90;;;;;;5027832;28;20435;-74
2021/06/11 05:47:25;;;;;;;33.87;22.67;;;16.40;99.90;;;;;;5028268;28;20294;-74
2021/06/11 05:49:50;;;;;;;31.93;21.27;;;16.60;99.90;;;;;;5025877;28;20170;-74
2021/06/11 05:52:16;;;;;;;35.40;23.97;;;16.70;99.90;;;;;;5025898;28;20190;-81
2021/06/11 05:54:42;;;;;;;30.90;23.73;;;16.80;99.90;;;;;;5026805;28;20178;-81
2021/06/11 05:57:07;;;;;;;31.13;21.73;;;16.90;99.90;;;;;;5026090;28;20220;-81
2021/06/11 05:59:33;;;;;;;31.90;23.93;;;17.00;99.90;;;;;;5028562;28;20217;-81
2021/06/11 06:01:59;;;;;;;28.70;21.77;;;17.00;99.90;;;;;;5003690;28;20190;-81
2021/06/11 06:04:24;;;;;;;26.97;20.93;;;17.00;99.90;;;;;;5025640;28;20802;-81
2021/06/11 06:06:50;;;;;;;25.17;19.10;;;17.00;99.90;;;;;;5028592;28;20252;-81
2021/06/11 06:09:16;;;;;;;26.73;19.37;;;17.10;99.90;;;;;;5031510;28;20265;-81
2021/06/11 06:11:42;;;;;;;30.80;22.20;;;17.10;99.90;;;;;;5029797;28;20202;-81
2021/06/11 06:14:08;;;;;;;30.57;21.10;;;17.10;99.90;;;;;;5030436;28;20471;-81
2021/06/11 06:16:35;;;;;;;24.53;17.53;;;17.10;99.90;;;;;;5033860;28;20529;-81
2021/06/11 06:19:01;;;;;;;24.83;19.63;;;17.20;99.90;;;;;;5035074;28;20444;-81
2021/06/11 06:21:30;;;;;;;22.33;17.93;;;17.30;99.90;;;;;;5025402;28;20872;-81
2021/06/11 06:23:55;;;;;;;29.27;21.67;;;17.30;99.90;;;;;;5033735;28;20502;-81
2021/06/11 06:26:21;;;;;;;22.33;16.77;;;17.40;99.90;;;;;;5033534;28;20439;-81
2021/06/11 06:28:47;;;;;;;26.00;18.93;;;17.40;99.90;;;;;;5030087;28;20667;-81
2021/06/11 06:31:12;;;;;;;28.90;20.40;;;17.50;99.90;;;;;;5029607;28;20197;-81
2021/06/11 06:33:38;;;;;;;23.77;18.70;;;17.50;99.90;;;;;;5029748;28;20189;-81
2021/06/11 06:36:04;;;;;;;30.53;17.60;;;17.70;99.90;;;;;;5030553;28;20186;-81
2021/06/11 06:38:30;;;;;;;28.73;17.60;;;17.90;99.90;;;;;;5021704;28;20181;-80
2021/06/11 06:41:00;;;;;;;23.33;16.50;;;18.20;99.90;;;;;;5031718;28;20987;-80
2021/06/11 06:43:27;;;;;;;17.10;13.90;;;18.30;99.90;;;;;;5033223;28;20531;-80
2021/06/11 06:45:53;;;;;;;18.40;13.60;;;18.30;99.90;;;;;;5031727;28;20433;-80
2021/06/11 06:48:18;;;;;;;15.03;10.17;;;18.50;99.90;;;;;;5032307;28;20949;-80
2021/06/11 06:50:44;;;;;;;12.23;9.67;;;18.60;99.90;;;;;;5031419;28;20170;-80
2021/06/11 06:53:11;;;;;;;12.40;7.60;;;18.50;99.90;;;;;;5029981;28;20246;-80
2021/06/11 06:55:38;;;;;;;9.30;6.43;;;18.40;99.90;;;;;;5030296;28;20243;-79
2021/06/11 06:58:04;;;;;;;7.80;6.20;;;18.40;99.90;;;;;;5030581;28;20949;-79
2021/06/11 07:00:30;;;;;;;10.10;7.17;;;18.40;99.90;;;;;;5030453;28;20436;-80
2021/06/11 07:02:55;;;;;;;9.90;8.87;;;18.40;99.90;;;;;;5028522;28;20522;-80
2021/06/11 07:05:21;;;;;;;14.83;7.53;;;18.50;99.90;;;;;;5031694;28;20277;-79
2021/06/11 07:07:47;;;;;;;10.47;7.20;;;18.60;99.90;;;;;;5031018;28;20542;-80
2021/06/11 07:10:13;;;;;;;6.90;6.23;;;18.60;99.90;;;;;;5032868;28;20174;-80
2021/06/11 07:12:39;;;;;;;6.90;5.80;;;18.70;99.90;;;;;;5007241;28;20623;-79
2021/06/11 07:15:09;;;;;;;8.13;6.17;;;18.80;99.90;;;;;;5031329;28;20175;-79
2021/06/11 07:17:35;;;;;;;5.30;4.80;;;18.90;99.90;;;;;;5031654;28;20443;-80
2021/06/11 07:20:01;;;;;;;5.50;5.10;;;19.00;99.90;;;;;;5030974;28;20842;-80
2021/06/11 07:22:26;;;;;;;4.87;4.47;;;19.30;99.90;;;;;;5031844;28;20906;-80
2021/06/11 07:24:53;;;;;;;6.50;5.80;;;19.40;99.90;;;;;;5020496;28;20174;-81
2021/06/11 07:27:19;;;;;;;6.03;5.00;;;19.40;99.90;;;;;;5031451;28;20233;-80
2021/06/11 07:29:45;;;;;;;5.73;5.27;;;19.70;99.90;;;;;;5031854;28;20939;-80
2021/06/11 07:32:15;;;;;;;5.23;4.93;;;19.80;99.90;;;;;;5031232;28;20181;-80
2021/06/11 07:34:42;;;;;;;4.30;3.90;;;19.90;99.90;;;;;;5032037;28;20507;-81
2021/06/11 07:37:08;;;;;;;5.23;4.83;;;20.10;99.90;;;;;;5031072;28;20518;-81
2021/06/11 07:39:34;;;;;;;4.30;3.93;;;20.30;99.90;;;;;;5029647;28;20432;-81
2021/06/11 07:42:00;;;;;;;6.20;5.70;;;20.40;99.90;;;;;;5031637;28;20534;-81
2021/06/11 07:44:26;;;;;;;6.50;5.90;;;20.50;99.90;;;;;;5032716;28;20431;-80
2021/06/11 07:46:51;;;;;;;6.13;5.43;;;20.70;99.90;;;;;;5030682;28;20638;-80
2021/06/11 07:49:17;;;;;;;8.73;6.10;;;20.70;99.90;;;;;;5029340;28;20186;-81
2021/06/11 07:51:43;;;;;;;5.27;4.87;;;20.80;99.90;;;;;;5032955;28;20174;-80
2021/06/11 07:54:09;;;;;;;6.80;6.17;;;20.90;99.90;;;;;;5032756;28;20528;-81
2021/06/11 07:56:36;;;;;;;6.30;5.87;;;21.10;99.90;;;;;;5028065;28;20723;-81
2021/06/11 07:59:03;;;;;;;8.17;6.20;;;21.10;99.90;;;;;;5031131;28;20186;-82
2021/06/11 08:01:28;;;;;;;4.40;4.10;;;21.20;99.90;;;;;;5030317;28;20440;-81
2021/06/11 08:03:54;;;;;;;4.80;4.40;;;21.40;99.90;;;;;;5020905;28;20447;-81
2021/06/11 08:06:19;;;;;;;6.70;4.50;;;21.40;99.90;;;;;;5019912;28;20275;-81
2021/06/11 08:08:47;;;;;;;4.10;3.70;;;21.40;99.90;;;;;;5028919;28;20451;-82
2021/06/11 08:11:14;;;;;;;5.00;4.60;;;21.40;99.90;;;;;;5017975;28;20527;-81
2021/06/11 08:13:46;;;;;;;4.47;4.07;;;21.60;99.90;;;;;;5021530;28;20439;-81
2021/06/11 08:16:12;;;;;;;6.97;3.60;;;21.60;99.90;;;;;;5021780;28;20443;-81
2021/06/11 08:18:38;;;;;;;7.10;5.00;;;21.70;99.90;;;;;;5031661;28;20432;-81
2021/06/11 08:21:04;;;;;;;6.77;5.40;;;21.70;99.90;;;;;;5030827;28;20242;-81
2021/06/11 08:23:29;;;;;;;5.93;5.07;;;21.70;99.90;;;;;;5030582;28;20284;-81
2021/06/11 08:25:55;;;;;;;4.80;4.50;;;21.60;99.90;;;;;;5006036;28;20181;-81
2021/06/11 08:28:20;;;;;;;6.73;5.27;;;21.70;99.90;;;;;;5030824;28;20197;-82
2021/06/11 08:30:46;;;;;;;5.40;5.00;;;21.70;99.90;;;;;;5031466;28;20255;-80
2021/06/11 08:33:12;;;;;;;5.03;4.63;;;21.70;99.90;;;;;;5021433;28;20224;-79
2021/06/11 08:35:37;;;;;;;5.10;4.70;;;21.70;99.90;;;;;;5032202;28;20173;-80
2021/06/11 08:38:03;;;;;;;5.93;5.23;;;21.80;99.90;;;;;;5031591;28;20174;-80
2021/06/11 08:40:29;;;;;;;5.57;4.27;;;21.90;99.90;;;;;;5030131;28;20276;-80
2021/06/11 08:42:55;;;;;;;8.13;4.23;;;21.90;99.90;;;;;;5028486;28;20189;-80
2021/06/11 08:45:22;;;;;;;4.87;4.40;;;22.00;99.90;;;;;;5031993;28;20188;-79
2021/06/11 08:47:50;;;;;;;3.97;3.53;;;22.10;99.90;;;;;;5033927;28;20284;-79
2021/06/11 08:50:20;;;;;;;4.40;4.10;;;22.20;99.90;;;;;;5034035;28;20509;-79
2021/06/11 08:52:46;;;;;;;5.40;4.90;;;22.30;99.90;;;;;;5034841;28;20541;-79
2021/06/11 08:55:13;;;;;;;5.20;4.10;;;22.30;99.90;;;;;;5034878;28;20862;-79
2021/06/11 08:57:39;;;;;;;5.33;4.90;;;22.40;99.90;;;;;;5033082;28;20471;-79
2021/06/11 09:00:07;;;;;;;4.70;4.30;;;22.50;99.90;;;;;;5025553;28;20859;-79
2021/06/11 09:02:33;;;;;;;4.63;3.70;;;22.60;99.90;;;;;;5043117;28;20428;-78
2021/06/11 09:04:59;;;;;;;5.40;4.90;;;22.60;99.90;;;;;;5045741;28;20436;-77
2021/06/11 09:07:33;;;;;;;4.33;4.03;;;22.80;99.90;;;;;;5048187;28;20217;-77
2021/06/11 09:10:07;;;;;;;5.30;4.90;;;22.80;99.90;;;;;;5047260;28;20197;-78
2021/06/11 09:12:42;;;;;;;5.03;4.60;;;22.90;99.90;;;;;;5042193;28;20527;-76
2021/06/11 09:15:10;;;;;;;4.60;4.20;;;23.10;99.90;;;;;;5032885;28;20491;-77
2021/06/11 09:17:38;;;;;;;3.50;3.07;;;23.20;99.90;;;;;;5029989;28;20446;-77
2021/06/11 09:20:08;;;;;;;5.43;4.00;;;23.20;99.90;;;;;;5028124;28;20436;-76
2021/06/11 09:22:43;;;;;;;5.23;4.80;;;23.40;99.90;;;;;;5030723;28;20432;-76
2021/06/11 09:25:30;;;;;;;5.10;4.70;;;23.50;99.90;;;;;;5032649;28;20739;-76
2021/06/11 09:27:59;;;;;;;4.83;4.43;;;23.60;99.90;;;;;;5023475;28;20936;-76
2021/06/11 09:30:45;;;;;;;4.63;3.83;;;23.70;99.90;;;;;;5029220;28;20460;-77
2021/06/11 09:33:15;;;;;;;5.90;5.10;;;23.70;99.90;;;;;;5030029;28;20432;-76
2021/06/11 09:35:42;;;;;;;5.13;4.73;;;23.90;99.90;;;;;;5030604;28;20413;-77
2021/06/11 09:38:18;;;;;;;4.20;4.00;;;23.90;99.90;;;;;;5038024;28;20421;-77
2021/06/11 09:40:50;;;;;;;4.20;3.80;;;23.90;99.90;;;;;;5039223;28;20451;-77
2021/06/11 09:43:18;;;;;;;8.53;4.10;;;24.10;99.90;;;;;;5037925;28;20432;-77
2021/06/11 09:45:58;;;;;;;6.40;4.80;;;24.30;99.90;;;;;;5042083;28;20436;-78
2021/06/11 09:48:27;;;;;;;4.80;4.47;;;24.30;99.90;;;;;;5040884;28;20466;-78
2021/06/11 09:50:52;;;;;;;5.80;5.00;;;24.40;99.90;;;;;;5045223;28;20427;-77
2021/06/11 09:53:23;;;;;;;4.73;4.43;;;24.60;99.90;;;;;;5037798;28;20502;-77
2021/06/11 09:55:54;;;;;;;4.50;4.10;;;24.70;99.90;;;;;;5035211;28;20170;-77
2021/06/11 09:58:29;;;;;;;4.80;4.30;;;24.90;99.90;;;;;;5033851;28;20797;-77
2021/06/11 10:01:00;;;;;;;4.50;4.10;;;24.80;99.90;;;;;;5033857;28;20423;-76
2021/06/11 10:03:30;;;;;;;5.47;5.07;;;24.90;99.90;;;;;;5033194;28;20429;-77
2021/06/11 10:05:58;;;;;;;3.80;3.50;;;25.20;99.90;;;;;;5033334;28;20433;-77
2021/06/11 10:08:25;;;;;;;6.30;4.07;;;25.40;99.90;;;;;;5034729;28;20492;-77
2021/06/11 10:10:56;;;;;;;5.73;5.23;;;25.60;99.90;;;;;;5032923;28;20432;-77
2021/06/11 10:13:22;;;;;;;5.57;3.83;;;25.50;99.90;;;;;;5033991;28;20420;-76
2021/06/11 10:15:51;;;;;;;4.97;4.33;;;25.50;99.90;;;;;;5034029;28;20470;-77
2021/06/11 10:18:17;;;;;;;5.67;5.03;;;25.60;99.90;;;;;;5034877;28;20277;-76
2021/06/11 10:20:44;;;;;;;4.93;4.53;;;25.70;99.90;;;;;;5034024;28;20444;-76
2021/06/11 10:23:19;;;;;;;8.90;4.47;;;25.80;99.90;;;;;;5031754;28;20460;-77
2021/06/11 10:25:47;;;;;;;9.70;5.30;;;25.90;99.90;;;;;;5033696;28;20921;-77
2021/06/11 10:28:19;;;;;;;5.33;4.93;;;26.00;99.90;;;;;;5034317;28;20546;-78
2021/06/11 10:30:46;;;;;;;6.13;5.20;;;25.80;99.90;;;;;;5034345;28;20497;-77
2021/06/11 10:33:12;;;;;;;5.27;4.87;;;25.90;99.90;;;;;;5032045;28;20420;-77
2021/06/11 10:35:48;;;;;;;4.97;4.53;;;26.00;99.90;;;;;;5033827;28;20767;-77
2021/06/11 10:38:30;;;;;;;5.57;4.83;;;26.10;99.90;;;;;;5035057;28;20169;-77
2021/06/11 10:40:59;;;;;;;4.40;4.10;;;26.20;99.90;;;;;;5024209;28;20778;-77
2021/06/11 10:43:27;;;;;;;4.67;4.23;;;26.20;99.90;;;;;;5033022;28;20471;-77
2021/06/11 10:45:55;;;;;;;4.87;4.27;;;26.20;99.90;;;;;;5032679;28;20446;-76
2021/06/11 10:48:22;;;;;;;3.80;3.60;;;26.10;99.90;;;;;;5032416;28;20456;-76
2021/06/11 10:50:49;;;;;;;5.30;4.90;;;26.20;99.90;;;;;;5030328;28;20548;-76
2021/06/11 10:53:26;;;;;;;3.93;3.60;;;26.30;99.90;;;;;;5031185;28;20794;-76
2021/06/11 10:56:15;;;;;;;5.00;4.57;;;26.50;99.90;;;;;;5026901;28;20424;-77
2021/06/11 10:58:43;;;;;;;3.43;3.13;;;26.60;99.90;;;;;;5031500;28;20460;-77
2021/06/11 11:01:22;;;;;;;3.40;3.17;;;26.90;99.90;;;;;;5029697;28;20437;-76
2021/06/11 11:03:48;;;;;;;3.80;3.60;;;27.20;99.90;;;;;;5007778;28;20514;-76
2021/06/11 11:06:32;;;;;;;2.90;2.70;;;27.30;99.90;;;;;;5031455;28;20433;-75
2021/06/11 11:09:01;;;;;;;3.77;3.10;;;27.40;99.90;;;;;;5030908;28;21199;-75
2021/06/11 11:11:31;;;;;;;3.50;3.30;;;27.80;99.90;;;;;;5026874;28;20429;-77
2021/06/11 11:13:57;;;;;;;3.03;2.83;;;27.80;99.90;;;;;;5028837;28;20431;-76
2021/06/11 11:16:27;;;;;;;3.27;3.07;;;28.00;99.90;;;;;;5030275;28;20515;-76
2021/06/11 11:18:54;;;;;;;3.17;2.90;;;28.20;99.90;;;;;;5030909;28;20173;-77
2021/06/11 11:21:39;;;;;;;4.50;3.23;;;28.20;99.90;;;;;;5025807;28;20494;-76
2021/06/11 11:24:11;;;;;;;4.00;3.70;;;28.00;99.90;;;;;;5028738;28;20439;-77
2021/06/11 11:26:46;;;;;;;3.23;3.03;;;28.20;99.90;;;;;;5027200;28;20431;-77
2021/06/11 11:29:13;;;;;;;3.70;3.50;;;28.10;99.90;;;;;;5029816;28;20462;-77
2021/06/11 11:31:39;;;;;;;2.60;2.40;;;27.90;99.90;;;;;;5041418;28;20464;-77
2021/06/11 11:34:05;;;;;;;3.30;3.10;;;27.90;99.90;;;;;;5038512;28;20428;-77
2021/06/11 11:36:33;;;;;;;3.53;3.33;;;28.20;99.90;;;;;;5025293;28;20444;-77
2021/06/11 11:38:59;;;;;;;2.63;2.43;;;28.20;99.90;;;;;;5031039;28;20429;-77
2021/06/11 11:41:24;;;;;;;3.40;3.20;;;28.30;99.90;;;;;;5028356;28;20445;-77
2021/06/11 11:43:50;;;;;;;4.10;3.90;;;28.50;99.90;;;;;;5028393;28;20220;-77
2021/06/11 11:46:17;;;;;;;4.27;3.87;;;28.40;99.90;;;;;;5031696;28;20213;-78
2021/06/11 11:48:42;;;;;;;2.87;2.67;;;28.10;99.90;;;;;;5031255;28;20198;-77
2021/06/11 11:51:08;;;;;;;3.10;2.90;;;27.90;99.90;;;;;;5031245;28;20526;-77
2021/06/11 11:53:34;;;;;;;3.50;3.30;;;28.20;99.90;;;;;;5027426;28;20258;-77
2021/06/11 11:56:00;;;;;;;3.60;2.73;;;28.40;99.90;;;;;;5029019;28;20166;-77
2021/06/11 11:58:26;;;;;;;3.87;3.60;;;28.50;99.90;;;;;;5030003;28;20689;-79
2021/06/11 12:00:52;;;;;;;4.50;4.20;;;28.60;99.90;;;;;;5037128;28;20205;-77
2021/06/11 12:03:18;;;;;;;3.30;3.10;;;28.40;99.80;;;;;;5036678;28;20420;-77
2021/06/11 12:05:45;;;;;;;3.80;3.60;;;28.00;99.90;;;;;;5037972;28;20239;-82
2021/06/11 12:08:10;;;;;;;4.20;3.00;;;28.00;99.90;;;;;;5027317;28;20256;-78
2021/06/11 12:10:36;;;;;;;3.47;3.20;;;28.00;99.90;;;;;;5033934;28;20424;-77
2021/06/11 12:13:02;;;;;;;3.37;3.17;;;27.80;99.90;;;;;;5031977;28;20182;-77
2021/06/11 12:15:28;;;;;;;5.33;3.20;;;27.60;99.90;;;;;;5029486;28;20174;-78
2021/06/11 12:17:56;;;;;;;3.20;3.00;;;27.70;99.90;;;;;;5021271;28;20170;-75
2021/06/11 12:20:22;;;;;;;3.30;3.10;;;27.40;99.90;;;;;;5031515;28;20486;-76
2021/06/11 12:22:48;;;;;;;2.57;2.37;;;27.00;99.90;;;;;;5029014;28;20428;-77
2021/06/11 12:25:14;;;;;;;2.80;2.70;;;27.00;99.90;;;;;;5029370;28;20517;-77
2021/06/11 12:27:39;;;;;;;2.77;2.67;;;27.20;99.90;;;;;;5029912;28;20643;-78
2021/06/11 12:30:06;;;;;;;4.00;3.73;;;27.80;99.90;;;;;;5035268;28;20185;-78
2021/06/11 12:32:32;;;;;;;3.37;3.07;;;27.70;99.90;;;;;;5029445;28;20197;-77
2021/06/11 12:34:58;;;;;;;2.77;2.67;;;27.50;99.90;;;;;;5017092;28;20432;-77
2021/06/11 12:37:23;;;;;;;2.53;2.33;;;27.30;99.90;;;;;;5035608;28;20884;-78
2021/06/11 12:39:51;;;;;;;2.80;2.53;;;27.60;99.90;;;;;;5030347;28;20454;-77
2021/06/11 12:42:20;;;;;;;2.83;2.63;;;27.80;99.90;;;;;;5032107;28;20204;-77
2021/06/11 12:44:47;;;;;;;3.30;2.53;;;28.10;99.90;;;;;;5029542;28;20432;-77
2021/06/11 12:47:14;;;;;;;2.17;1.97;;;28.50;99.90;;;;;;5027933;28;20456;-79
2021/06/11 12:49:41;;;;;;;3.13;2.57;;;28.80;99.90;;;;;;5019950;28;20977;-75